sensor_id;sensor_type;location;lat;lon;timestamp;P1;durP1;ratioP1;P2;durP2;ratioP2
9115;SDS011;4593;53.652;10.168;2023-10-19T00:01:54;9.20;;;5.90;;
9115;SDS011;4593;53.652;10.168;2023-10-19T00:04:24;5.87;;;5.23;;
9115;SDS011;4593;53.652;10.168;2023-10-19T00:06:58;10.27;;;5.47;;
9115;SDS011;4593;53.652;10.168;2023-10-19T00:09:23;7.13;;;5.20;;
9115;SDS011;4593;53.652;10.168;2023-10-19T00:11:50;8.83;;;5.33;;
9115;SDS011;4593;53.652;10.168;2023-10-19T00:14:17;6.60;;;5.17;;
9115;SDS011;4593;53.652;10.168;2023-10-19T00:16:44;6.20;;;4.90;;
9115;SDS011;4593;53.652;10.168;2023-10-19T00:19:18;8.00;;;5.67;;
9115;SDS011;4593;53.652;10.168;2023-10-19T00:21:45;6.73;;;4.97;;
9115;SDS011;4593;53.652;10.168;2023-10-19T00:24:20;6.47;;;5.20;;
9115;SDS011;4593;53.652;10.168;2023-10-19T00:26:48;8.13;;;5.63;;
9115;SDS011;4593;53.652;10.168;2023-10-19T00:29:14;8.60;;;5.67;;
9115;SDS011;4593;53.652;10.168;2023-10-19T00:31:55;8.37;;;5.50;;
9115;SDS011;4593;53.652;10.168;2023-10-19T00:34:25;8.50;;;5.30;;
9115;SDS011;4593;53.652;10.168;2023-10-19T00:36:53;8.37;;;5.50;;
9115;SDS011;4593;53.652;10.168;2023-10-19T00:39:21;8.80;;;4.93;;
9115;SDS011;4593;53.652;10.168;2023-10-19T00:41:48;8.53;;;5.53;;
9115;SDS011;4593;53.652;10.168;2023-10-19T00:44:14;7.03;;;5.43;;
9115;SDS011;4593;53.652;10.168;2023-10-19T00:46:42;5.60;;;4.77;;
9115;SDS011;4593;53.652;10.168;2023-10-19T00:49:09;10.43;;;5.50;;
9115;SDS011;4593;53.652;10.168;2023-10-19T00:51:40;7.97;;;5.83;;
9115;SDS011;4593;53.652;10.168;2023-10-19T00:54:36;6.63;;;4.80;;
9115;SDS011;4593;53.652;10.168;2023-10-19T00:57:16;10.03;;;5.80;;
9115;SDS011;4593;53.652;10.168;2023-10-19T00:59:48;9.63;;;5.10;;
9115;SDS011;4593;53.652;10.168;2023-10-19T01:02:18;9.00;;;5.57;;
9115;SDS011;4593;53.652;10.168;2023-10-19T01:04:47;9.10;;;5.53;;
9115;SDS011;4593;53.652;10.168;2023-10-19T01:07:29;6.77;;;5.60;;
9115;SDS011;4593;53.652;10.168;2023-10-19T01:09:56;6.30;;;4.97;;
9115;SDS011;4593;53.652;10.168;2023-10-19T01:12:25;7.70;;;5.47;;
9115;SDS011;4593;53.652;10.168;2023-10-19T01:17:42;6.97;;;5.40;;
9115;SDS011;4593;53.652;10.168;2023-10-19T01:20:10;12.30;;;5.40;;
9115;SDS011;4593;53.652;10.168;2023-10-19T01:25:39;7.60;;;5.07;;
9115;SDS011;4593;53.652;10.168;2023-10-19T01:28:11;7.93;;;5.10;;
9115;SDS011;4593;53.652;10.168;2023-10-19T01:30:41;6.90;;;4.70;;
9115;SDS011;4593;53.652;10.168;2023-10-19T01:33:07;6.17;;;5.27;;
9115;SDS011;4593;53.652;10.168;2023-10-19T01:35:40;12.77;;;5.90;;
9115;SDS011;4593;53.652;10.168;2023-10-19T01:38:25;9.17;;;5.80;;
9115;SDS011;4593;53.652;10.168;2023-10-19T01:40:50;6.83;;;5.20;;
9115;SDS011;4593;53.652;10.168;2023-10-19T01:43:16;8.97;;;5.83;;
9115;SDS011;4593;53.652;10.168;2023-10-19T01:45:51;9.63;;;6.17;;
9115;SDS011;4593;53.652;10.168;2023-10-19T01:48:20;6.37;;;5.03;;
9115;SDS011;4593;53.652;10.168;2023-10-19T01:50:48;7.50;;;5.03;;
9115;SDS011;4593;53.652;10.168;2023-10-19T01:53:16;7.90;;;5.87;;
9115;SDS011;4593;53.652;10.168;2023-10-19T01:55:43;9.63;;;5.93;;
9115;SDS011;4593;53.652;10.168;2023-10-19T01:58:12;9.60;;;5.43;;
9115;SDS011;4593;53.652;10.168;2023-10-19T02:00:39;8.93;;;5.70;;
9115;SDS011;4593;53.652;10.168;2023-10-19T02:03:07;7.87;;;6.00;;
9115;SDS011;4593;53.652;10.168;2023-10-19T02:05:33;7.23;;;5.70;;
9115;SDS011;4593;53.652;10.168;2023-10-19T02:08:07;7.00;;;5.23;;
9115;SDS011;4593;53.652;10.168;2023-10-19T02:10:36;9.63;;;5.73;;
9115;SDS011;4593;53.652;10.168;2023-10-19T02:13:07;8.77;;;6.03;;
9115;SDS011;4593;53.652;10.168;2023-10-19T02:15:34;8.20;;;5.93;;
9115;SDS011;4593;53.652;10.168;2023-10-19T02:18:01;8.40;;;5.20;;
9115;SDS011;4593;53.652;10.168;2023-10-19T02:20:28;10.27;;;5.30;;
9115;SDS011;4593;53.652;10.168;2023-10-19T02:22:57;8.03;;;5.20;;
9115;SDS011;4593;53.652;10.168;2023-10-19T02:25:23;6.50;;;5.27;;
9115;SDS011;4593;53.652;10.168;2023-10-19T02:28:01;7.27;;;5.40;;
9115;SDS011;4593;53.652;10.168;2023-10-19T02:30:32;6.97;;;5.80;;
9115;SDS011;4593;53.652;10.168;2023-10-19T02:32:59;10.93;;;6.00;;
9115;SDS011;4593;53.652;10.168;2023-10-19T02:35:26;9.73;;;6.10;;
9115;SDS011;4593;53.652;10.168;2023-10-19T02:37:53;9.13;;;5.90;;
9115;SDS011;4593;53.652;10.168;2023-10-19T02:40:19;8.23;;;5.83;;
9115;SDS011;4593;53.652;10.168;2023-10-19T02:42:48;8.70;;;5.57;;
9115;SDS011;4593;53.652;10.168;2023-10-19T02:45:15;9.47;;;6.03;;
9115;SDS011;4593;53.652;10.168;2023-10-19T02:47:42;7.40;;;6.07;;
9115;SDS011;4593;53.652;10.168;2023-10-19T02:50:09;11.07;;;6.30;;
9115;SDS011;4593;53.652;10.168;2023-10-19T02:52:41;9.90;;;6.27;;
9115;SDS011;4593;53.652;10.168;2023-10-19T02:55:08;8.20;;;5.50;;
9115;SDS011;4593;53.652;10.168;2023-10-19T02:57:37;8.20;;;6.30;;
9115;SDS011;4593;53.652;10.168;2023-10-19T03:00:06;8.10;;;5.63;;
9115;SDS011;4593;53.652;10.168;2023-10-19T03:02:39;9.97;;;6.27;;
9115;SDS011;4593;53.652;10.168;2023-10-19T03:05:05;8.53;;;5.77;;
9115;SDS011;4593;53.652;10.168;2023-10-19T03:07:42;7.30;;;5.80;;
9115;SDS011;4593;53.652;10.168;2023-10-19T03:10:09;10.73;;;6.63;;
9115;SDS011;4593;53.652;10.168;2023-10-19T03:12:49;7.17;;;5.97;;
9115;SDS011;4593;53.652;10.168;2023-10-19T03:15:16;8.13;;;5.67;;
9115;SDS011;4593;53.652;10.168;2023-10-19T03:17:45;9.70;;;5.77;;
9115;SDS011;4593;53.652;10.168;2023-10-19T03:20:11;7.93;;;5.23;;
9115;SDS011;4593;53.652;10.168;2023-10-19T03:22:37;7.17;;;5.77;;
9115;SDS011;4593;53.652;10.168;2023-10-19T03:25:04;10.77;;;5.87;;
9115;SDS011;4593;53.652;10.168;2023-10-19T03:27:51;14.73;;;6.07;;
9115;SDS011;4593;53.652;10.168;2023-10-19T03:30:20;7.13;;;5.50;;
9115;SDS011;4593;53.652;10.168;2023-10-19T03:32:49;10.73;;;5.80;;
9115;SDS011;4593;53.652;10.168;2023-10-19T03:35:15;9.27;;;5.90;;
9115;SDS011;4593;53.652;10.168;2023-10-19T03:37:41;10.13;;;5.73;;
9115;SDS011;4593;53.652;10.168;2023-10-19T03:40:07;7.27;;;5.80;;
9115;SDS011;4593;53.652;10.168;2023-10-19T03:42:35;10.43;;;5.83;;
9115;SDS011;4593;53.652;10.168;2023-10-19T03:45:06;8.33;;;5.90;;
9115;SDS011;4593;53.652;10.168;2023-10-19T03:47:38;10.13;;;6.97;;
9115;SDS011;4593;53.652;10.168;2023-10-19T03:50:04;10.30;;;6.17;;
9115;SDS011;4593;53.652;10.168;2023-10-19T03:52:37;6.63;;;5.63;;
9115;SDS011;4593;53.652;10.168;2023-10-19T03:55:04;7.60;;;5.37;;
9115;SDS011;4593;53.652;10.168;2023-10-19T03:57:36;12.13;;;6.10;;
9115;SDS011;4593;53.652;10.168;2023-10-19T04:00:06;9.13;;;5.77;;
9115;SDS011;4593;53.652;10.168;2023-10-19T04:02:40;7.90;;;5.27;;
9115;SDS011;4593;53.652;10.168;2023-10-19T04:05:07;8.63;;;6.50;;
9115;SDS011;4593;53.652;10.168;2023-10-19T04:07:35;7.77;;;5.60;;
9115;SDS011;4593;53.652;10.168;2023-10-19T04:10:01;9.70;;;6.27;;
9115;SDS011;4593;53.652;10.168;2023-10-19T04:12:29;11.10;;;5.40;;
9115;SDS011;4593;53.652;10.168;2023-10-19T04:15:00;9.33;;;6.03;;
9115;SDS011;4593;53.652;10.168;2023-10-19T04:17:46;8.73;;;6.40;;
9115;SDS011;4593;53.652;10.168;2023-10-19T04:20:13;12.53;;;5.70;;
9115;SDS011;4593;53.652;10.168;2023-10-19T04:22:41;11.47;;;6.27;;
9115;SDS011;4593;53.652;10.168;2023-10-19T04:25:07;9.13;;;6.00;;
9115;SDS011;4593;53.652;10.168;2023-10-19T04:27:37;8.83;;;5.87;;
9115;SDS011;4593;53.652;10.168;2023-10-19T04:30:07;7.93;;;5.23;;
9115;SDS011;4593;53.652;10.168;2023-10-19T04:32:41;9.07;;;5.77;;
9115;SDS011;4593;53.652;10.168;2023-10-19T04:35:07;11.23;;;6.53;;
9115;SDS011;4593;53.652;10.168;2023-10-19T04:37:37;7.30;;;5.47;;
9115;SDS011;4593;53.652;10.168;2023-10-19T04:40:07;11.50;;;5.90;;
9115;SDS011;4593;53.652;10.168;2023-10-19T04:42:34;8.73;;;6.13;;
9115;SDS011;4593;53.652;10.168;2023-10-19T04:45:01;10.63;;;5.97;;
9115;SDS011;4593;53.652;10.168;2023-10-19T04:47:28;11.37;;;6.13;;
9115;SDS011;4593;53.652;10.168;2023-10-19T04:49:54;8.13;;;6.50;;
9115;SDS011;4593;53.652;10.168;2023-10-19T04:52:20;7.37;;;5.63;;
9115;SDS011;4593;53.652;10.168;2023-10-19T04:54:46;10.50;;;6.23;;
9115;SDS011;4593;53.652;10.168;2023-10-19T04:57:11;9.27;;;6.27;;
9115;SDS011;4593;53.652;10.168;2023-10-19T04:59:37;12.13;;;7.10;;
9115;SDS011;4593;53.652;10.168;2023-10-19T05:02:03;8.83;;;5.50;;
9115;SDS011;4593;53.652;10.168;2023-10-19T05:04:30;9.33;;;5.63;;
9115;SDS011;4593;53.652;10.168;2023-10-19T05:06:56;11.23;;;7.47;;
9115;SDS011;4593;53.652;10.168;2023-10-19T05:09:22;13.33;;;6.70;;
9115;SDS011;4593;53.652;10.168;2023-10-19T05:11:47;10.70;;;6.37;;
9115;SDS011;4593;53.652;10.168;2023-10-19T05:14:13;9.50;;;6.53;;
9115;SDS011;4593;53.652;10.168;2023-10-19T05:16:42;11.17;;;6.60;;
9115;SDS011;4593;53.652;10.168;2023-10-19T05:19:07;10.87;;;6.60;;
9115;SDS011;4593;53.652;10.168;2023-10-19T05:21:33;8.77;;;6.13;;
9115;SDS011;4593;53.652;10.168;2023-10-19T05:23:59;9.20;;;7.13;;
9115;SDS011;4593;53.652;10.168;2023-10-19T05:26:25;11.27;;;7.70;;
9115;SDS011;4593;53.652;10.168;2023-10-19T05:28:52;11.67;;;6.60;;
9115;SDS011;4593;53.652;10.168;2023-10-19T05:31:19;10.73;;;7.17;;
9115;SDS011;4593;53.652;10.168;2023-10-19T05:33:45;8.33;;;6.13;;
9115;SDS011;4593;53.652;10.168;2023-10-19T05:36:13;12.03;;;6.77;;
9115;SDS011;4593;53.652;10.168;2023-10-19T05:38:39;9.40;;;6.73;;
9115;SDS011;4593;53.652;10.168;2023-10-19T05:41:05;11.50;;;6.87;;
9115;SDS011;4593;53.652;10.168;2023-10-19T05:43:32;10.13;;;7.03;;
9115;SDS011;4593;53.652;10.168;2023-10-19T05:45:59;14.37;;;6.97;;
9115;SDS011;4593;53.652;10.168;2023-10-19T05:48:25;11.57;;;6.17;;
9115;SDS011;4593;53.652;10.168;2023-10-19T05:50:51;12.50;;;6.80;;
9115;SDS011;4593;53.652;10.168;2023-10-19T05:53:16;16.97;;;7.07;;
9115;SDS011;4593;53.652;10.168;2023-10-19T05:55:47;10.97;;;6.50;;
9115;SDS011;4593;53.652;10.168;2023-10-19T05:58:14;12.30;;;7.10;;
9115;SDS011;4593;53.652;10.168;2023-10-19T06:00:40;10.70;;;6.13;;
9115;SDS011;4593;53.652;10.168;2023-10-19T06:03:05;8.40;;;6.00;;
9115;SDS011;4593;53.652;10.168;2023-10-19T06:05:31;9.53;;;7.73;;
9115;SDS011;4593;53.652;10.168;2023-10-19T06:07:57;9.80;;;6.57;;
9115;SDS011;4593;53.652;10.168;2023-10-19T06:10:24;7.90;;;5.67;;
9115;SDS011;4593;53.652;10.168;2023-10-19T06:12:52;10.70;;;6.60;;
9115;SDS011;4593;53.652;10.168;2023-10-19T06:15:19;11.30;;;7.13;;
9115;SDS011;4593;53.652;10.168;2023-10-19T06:17:47;11.10;;;6.10;;
9115;SDS011;4593;53.652;10.168;2023-10-19T06:20:14;12.90;;;6.83;;
9115;SDS011;4593;53.652;10.168;2023-10-19T06:22:56;11.40;;;6.43;;
9115;SDS011;4593;53.652;10.168;2023-10-19T06:25:28;17.03;;;7.77;;
9115;SDS011;4593;53.652;10.168;2023-10-19T06:27:54;9.27;;;5.90;;
9115;SDS011;4593;53.652;10.168;2023-10-19T06:30:22;8.03;;;5.93;;
9115;SDS011;4593;53.652;10.168;2023-10-19T06:32:49;13.50;;;6.87;;
9115;SDS011;4593;53.652;10.168;2023-10-19T06:35:17;12.43;;;6.83;;
9115;SDS011;4593;53.652;10.168;2023-10-19T06:37:43;16.30;;;6.70;;
9115;SDS011;4593;53.652;10.168;2023-10-19T06:40:10;13.97;;;8.10;;
9115;SDS011;4593;53.652;10.168;2023-10-19T06:42:43;12.23;;;7.23;;
9115;SDS011;4593;53.652;10.168;2023-10-19T06:45:10;11.50;;;6.60;;
9115;SDS011;4593;53.652;10.168;2023-10-19T06:47:39;11.33;;;7.77;;
9115;SDS011;4593;53.652;10.168;2023-10-19T06:50:06;12.03;;;6.80;;
9115;SDS011;4593;53.652;10.168;2023-10-19T06:52:34;9.67;;;6.17;;
9115;SDS011;4593;53.652;10.168;2023-10-19T06:55:01;10.40;;;6.93;;
9115;SDS011;4593;53.652;10.168;2023-10-19T06:57:36;11.20;;;6.83;;
9115;SDS011;4593;53.652;10.168;2023-10-19T07:00:03;9.47;;;6.53;;
9115;SDS011;4593;53.652;10.168;2023-10-19T07:02:35;8.07;;;6.07;;
9115;SDS011;4593;53.652;10.168;2023-10-19T07:05:01;9.90;;;6.60;;
9115;SDS011;4593;53.652;10.168;2023-10-19T07:07:28;13.17;;;7.40;;
9115;SDS011;4593;53.652;10.168;2023-10-19T07:09:54;9.87;;;6.17;;
9115;SDS011;4593;53.652;10.168;2023-10-19T07:12:20;12.97;;;7.20;;
9115;SDS011;4593;53.652;10.168;2023-10-19T07:14:46;10.27;;;7.40;;
9115;SDS011;4593;53.652;10.168;2023-10-19T07:17:12;12.80;;;7.37;;
9115;SDS011;4593;53.652;10.168;2023-10-19T07:19:41;10.03;;;7.50;;
9115;SDS011;4593;53.652;10.168;2023-10-19T07:22:08;11.33;;;7.30;;
9115;SDS011;4593;53.652;10.168;2023-10-19T07:24:35;9.63;;;6.53;;
9115;SDS011;4593;53.652;10.168;2023-10-19T07:29:38;12.87;;;7.70;;
9115;SDS011;4593;53.652;10.168;2023-10-19T07:32:08;15.27;;;8.37;;
9115;SDS011;4593;53.652;10.168;2023-10-19T07:34:36;12.30;;;6.70;;
9115;SDS011;4593;53.652;10.168;2023-10-19T07:37:02;12.10;;;6.40;;
9115;SDS011;4593;53.652;10.168;2023-10-19T07:39:28;12.23;;;7.60;;
9115;SDS011;4593;53.652;10.168;2023-10-19T07:41:55;11.17;;;8.13;;
9115;SDS011;4593;53.652;10.168;2023-10-19T07:44:22;13.97;;;7.00;;
9115;SDS011;4593;53.652;10.168;2023-10-19T07:46:47;13.63;;;7.87;;
9115;SDS011;4593;53.652;10.168;2023-10-19T07:49:14;12.83;;;7.80;;
9115;SDS011;4593;53.652;10.168;2023-10-19T07:51:49;12.63;;;6.83;;
9115;SDS011;4593;53.652;10.168;2023-10-19T07:54:16;12.30;;;8.07;;
9115;SDS011;4593;53.652;10.168;2023-10-19T07:56:41;10.50;;;6.83;;
9115;SDS011;4593;53.652;10.168;2023-10-19T07:59:08;15.57;;;8.00;;
9115;SDS011;4593;53.652;10.168;2023-10-19T08:01:34;11.93;;;7.83;;
9115;SDS011;4593;53.652;10.168;2023-10-19T08:04:01;13.50;;;7.63;;
9115;SDS011;4593;53.652;10.168;2023-10-19T08:06:26;12.60;;;7.47;;
9115;SDS011;4593;53.652;10.168;2023-10-19T08:08:52;13.00;;;7.17;;
9115;SDS011;4593;53.652;10.168;2023-10-19T08:11:18;13.00;;;7.00;;
9115;SDS011;4593;53.652;10.168;2023-10-19T08:13:43;15.57;;;7.43;;
9115;SDS011;4593;53.652;10.168;2023-10-19T08:16:09;10.00;;;7.30;;
9115;SDS011;4593;53.652;10.168;2023-10-19T08:18:37;13.13;;;8.23;;
9115;SDS011;4593;53.652;10.168;2023-10-19T08:21:02;11.57;;;7.30;;
9115;SDS011;4593;53.652;10.168;2023-10-19T08:23:28;11.87;;;6.93;;
9115;SDS011;4593;53.652;10.168;2023-10-19T08:25:56;13.23;;;8.33;;
9115;SDS011;4593;53.652;10.168;2023-10-19T08:28:22;12.30;;;7.03;;
9115;SDS011;4593;53.652;10.168;2023-10-19T08:30:48;12.50;;;8.07;;
9115;SDS011;4593;53.652;10.168;2023-10-19T08:33:23;13.40;;;6.87;;
9115;SDS011;4593;53.652;10.168;2023-10-19T08:35:51;11.57;;;7.17;;
9115;SDS011;4593;53.652;10.168;2023-10-19T08:38:20;12.13;;;7.07;;
9115;SDS011;4593;53.652;10.168;2023-10-19T08:40:46;16.23;;;8.13;;
9115;SDS011;4593;53.652;10.168;2023-10-19T08:43:13;14.90;;;7.33;;
9115;SDS011;4593;53.652;10.168;2023-10-19T08:45:43;11.80;;;7.30;;
9115;SDS011;4593;53.652;10.168;2023-10-19T08:48:08;17.37;;;8.60;;
9115;SDS011;4593;53.652;10.168;2023-10-19T08:50:34;12.13;;;7.30;;
9115;SDS011;4593;53.652;10.168;2023-10-19T08:53:00;11.83;;;8.47;;
9115;SDS011;4593;53.652;10.168;2023-10-19T08:55:30;14.40;;;7.80;;
9115;SDS011;4593;53.652;10.168;2023-10-19T08:57:59;15.00;;;7.73;;
9115;SDS011;4593;53.652;10.168;2023-10-19T09:00:25;11.73;;;8.27;;
9115;SDS011;4593;53.652;10.168;2023-10-19T09:02:52;13.63;;;7.87;;
9115;SDS011;4593;53.652;10.168;2023-10-19T09:05:19;14.73;;;7.33;;
9115;SDS011;4593;53.652;10.168;2023-10-19T09:07:49;14.50;;;8.37;;
9115;SDS011;4593;53.652;10.168;2023-10-19T09:10:27;13.80;;;7.20;;
9115;SDS011;4593;53.652;10.168;2023-10-19T09:13:00;13.33;;;8.10;;
9115;SDS011;4593;53.652;10.168;2023-10-19T09:15:38;12.20;;;8.17;;
9115;SDS011;4593;53.652;10.168;2023-10-19T09:18:21;12.07;;;7.73;;
9115;SDS011;4593;53.652;10.168;2023-10-19T09:20:48;12.43;;;7.60;;
9115;SDS011;4593;53.652;10.168;2023-10-19T09:23:25;15.47;;;7.50;;
9115;SDS011;4593;53.652;10.168;2023-10-19T09:25:55;13.30;;;7.33;;
9115;SDS011;4593;53.652;10.168;2023-10-19T09:28:22;13.93;;;7.23;;
9115;SDS011;4593;53.652;10.168;2023-10-19T09:30:49;14.00;;;8.23;;
9115;SDS011;4593;53.652;10.168;2023-10-19T09:33:16;13.13;;;7.47;;
9115;SDS011;4593;53.652;10.168;2023-10-19T09:35:46;14.57;;;7.60;;
9115;SDS011;4593;53.652;10.168;2023-10-19T09:38:13;12.60;;;7.80;;
9115;SDS011;4593;53.652;10.168;2023-10-19T09:40:47;12.63;;;7.80;;
9115;SDS011;4593;53.652;10.168;2023-10-19T09:43:22;13.73;;;7.20;;
9115;SDS011;4593;53.652;10.168;2023-10-19T09:45:51;11.43;;;6.27;;
9115;SDS011;4593;53.652;10.168;2023-10-19T09:48:23;10.30;;;7.33;;
9115;SDS011;4593;53.652;10.168;2023-10-19T09:50:53;12.37;;;7.93;;
9115;SDS011;4593;53.652;10.168;2023-10-19T09:53:26;14.63;;;8.30;;
9115;SDS011;4593;53.652;10.168;2023-10-19T09:55:54;12.93;;;6.83;;
9115;SDS011;4593;53.652;10.168;2023-10-19T09:58:27;13.03;;;7.57;;
9115;SDS011;4593;53.652;10.168;2023-10-19T10:00:56;12.60;;;7.70;;
9115;SDS011;4593;53.652;10.168;2023-10-19T10:06:28;13.10;;;7.23;;
9115;SDS011;4593;53.652;10.168;2023-10-19T10:08:55;11.53;;;7.63;;
9115;SDS011;4593;53.652;10.168;2023-10-19T10:11:24;10.77;;;8.10;;
9115;SDS011;4593;53.652;10.168;2023-10-19T10:13:57;11.80;;;6.70;;
9115;SDS011;4593;53.652;10.168;2023-10-19T10:16:27;10.30;;;7.07;;
9115;SDS011;4593;53.652;10.168;2023-10-19T10:18:57;11.70;;;7.63;;
9115;SDS011;4593;53.652;10.168;2023-10-19T10:21:25;12.07;;;7.37;;
9115;SDS011;4593;53.652;10.168;2023-10-19T10:23:52;13.27;;;7.37;;
9115;SDS011;4593;53.652;10.168;2023-10-19T10:26:28;17.00;;;7.97;;
9115;SDS011;4593;53.652;10.168;2023-10-19T10:29:15;13.33;;;7.67;;
9115;SDS011;4593;53.652;10.168;2023-10-19T10:31:48;14.80;;;7.77;;
9115;SDS011;4593;53.652;10.168;2023-10-19T10:37:02;13.57;;;7.33;;
9115;SDS011;4593;53.652;10.168;2023-10-19T10:39:29;16.17;;;7.57;;
9115;SDS011;4593;53.652;10.168;2023-10-19T10:42:00;10.10;;;7.03;;
9115;SDS011;4593;53.652;10.168;2023-10-19T10:44:41;13.43;;;7.63;;
9115;SDS011;4593;53.652;10.168;2023-10-19T10:47:08;13.77;;;7.37;;
9115;SDS011;4593;53.652;10.168;2023-10-19T10:49:55;11.83;;;7.87;;
9115;SDS011;4593;53.652;10.168;2023-10-19T10:52:32;15.03;;;7.43;;
9115;SDS011;4593;53.652;10.168;2023-10-19T10:55:05;11.80;;;7.30;;
9115;SDS011;4593;53.652;10.168;2023-10-19T10:57:32;13.17;;;7.40;;
9115;SDS011;4593;53.652;10.168;2023-10-19T11:00:04;12.53;;;8.13;;
9115;SDS011;4593;53.652;10.168;2023-10-19T11:02:40;13.73;;;7.63;;
9115;SDS011;4593;53.652;10.168;2023-10-19T11:05:11;13.90;;;8.07;;
9115;SDS011;4593;53.652;10.168;2023-10-19T11:07:40;15.17;;;9.07;;
9115;SDS011;4593;53.652;10.168;2023-10-19T11:10:07;14.40;;;8.07;;
9115;SDS011;4593;53.652;10.168;2023-10-19T11:12:35;17.57;;;8.43;;
9115;SDS011;4593;53.652;10.168;2023-10-19T11:15:02;13.73;;;7.83;;
9115;SDS011;4593;53.652;10.168;2023-10-19T11:17:41;13.93;;;7.97;;
9115;SDS011;4593;53.652;10.168;2023-10-19T11:20:08;13.33;;;8.07;;
9115;SDS011;4593;53.652;10.168;2023-10-19T11:22:44;12.97;;;8.37;;
9115;SDS011;4593;53.652;10.168;2023-10-19T11:25:20;19.13;;;9.20;;
9115;SDS011;4593;53.652;10.168;2023-10-19T11:27:46;25.13;;;9.50;;
9115;SDS011;4593;53.652;10.168;2023-10-19T11:30:12;12.37;;;8.13;;
9115;SDS011;4593;53.652;10.168;2023-10-19T11:32:39;11.93;;;8.13;;
9115;SDS011;4593;53.652;10.168;2023-10-19T11:35:04;10.60;;;8.07;;
9115;SDS011;4593;53.652;10.168;2023-10-19T11:37:53;14.07;;;8.33;;
9115;SDS011;4593;53.652;10.168;2023-10-19T11:40:22;18.40;;;9.30;;
9115;SDS011;4593;53.652;10.168;2023-10-19T11:42:49;11.13;;;7.97;;
9115;SDS011;4593;53.652;10.168;2023-10-19T11:45:15;12.57;;;8.17;;
9115;SDS011;4593;53.652;10.168;2023-10-19T11:47:44;14.83;;;7.63;;
9115;SDS011;4593;53.652;10.168;2023-10-19T11:50:13;12.20;;;7.90;;
9115;SDS011;4593;53.652;10.168;2023-10-19T11:52:43;13.93;;;8.50;;
9115;SDS011;4593;53.652;10.168;2023-10-19T11:55:09;15.20;;;8.10;;
9115;SDS011;4593;53.652;10.168;2023-10-19T11:57:35;13.40;;;8.03;;
9115;SDS011;4593;53.652;10.168;2023-10-19T12:00:04;10.50;;;6.83;;
9115;SDS011;4593;53.652;10.168;2023-10-19T12:02:39;11.60;;;7.63;;
9115;SDS011;4593;53.652;10.168;2023-10-19T12:05:07;10.47;;;7.70;;
9115;SDS011;4593;53.652;10.168;2023-10-19T12:07:38;12.57;;;8.07;;
9115;SDS011;4593;53.652;10.168;2023-10-19T12:10:06;15.33;;;8.10;;
9115;SDS011;4593;53.652;10.168;2023-10-19T12:12:33;10.13;;;7.07;;
9115;SDS011;4593;53.652;10.168;2023-10-19T12:14:59;10.90;;;7.30;;
9115;SDS011;4593;53.652;10.168;2023-10-19T12:17:25;10.97;;;7.27;;
9115;SDS011;4593;53.652;10.168;2023-10-19T12:19:52;10.73;;;7.37;;
9115;SDS011;4593;53.652;10.168;2023-10-19T12:22:19;12.27;;;7.53;;
9115;SDS011;4593;53.652;10.168;2023-10-19T12:24:46;13.70;;;8.17;;
9115;SDS011;4593;53.652;10.168;2023-10-19T12:27:12;15.10;;;8.30;;
9115;SDS011;4593;53.652;10.168;2023-10-19T12:29:38;13.40;;;8.43;;
9115;SDS011;4593;53.652;10.168;2023-10-19T12:32:04;16.30;;;7.90;;
9115;SDS011;4593;53.652;10.168;2023-10-19T12:34:31;12.60;;;8.47;;
9115;SDS011;4593;53.652;10.168;2023-10-19T12:36:56;19.30;;;8.83;;
9115;SDS011;4593;53.652;10.168;2023-10-19T12:39:23;17.33;;;9.23;;
9115;SDS011;4593;53.652;10.168;2023-10-19T12:42:07;12.47;;;8.23;;
9115;SDS011;4593;53.652;10.168;2023-10-19T12:44:33;11.90;;;7.40;;
9115;SDS011;4593;53.652;10.168;2023-10-19T12:47:04;11.43;;;7.53;;
9115;SDS011;4593;53.652;10.168;2023-10-19T12:49:35;12.23;;;7.27;;
9115;SDS011;4593;53.652;10.168;2023-10-19T12:52:01;12.53;;;8.07;;
9115;SDS011;4593;53.652;10.168;2023-10-19T12:54:28;15.13;;;7.77;;
9115;SDS011;4593;53.652;10.168;2023-10-19T12:56:54;13.33;;;8.53;;
9115;SDS011;4593;53.652;10.168;2023-10-19T12:59:21;14.57;;;8.67;;
9115;SDS011;4593;53.652;10.168;2023-10-19T13:01:47;13.20;;;7.90;;
9115;SDS011;4593;53.652;10.168;2023-10-19T13:04:14;16.87;;;8.60;;
9115;SDS011;4593;53.652;10.168;2023-10-19T13:06:43;13.67;;;8.30;;
9115;SDS011;4593;53.652;10.168;2023-10-19T13:09:12;11.77;;;7.40;;
9115;SDS011;4593;53.652;10.168;2023-10-19T13:11:40;14.63;;;7.90;;
9115;SDS011;4593;53.652;10.168;2023-10-19T13:14:08;12.77;;;8.07;;
9115;SDS011;4593;53.652;10.168;2023-10-19T13:16:35;17.00;;;8.23;;
9115;SDS011;4593;53.652;10.168;2023-10-19T13:19:00;11.60;;;7.67;;
9115;SDS011;4593;53.652;10.168;2023-10-19T13:21:34;15.20;;;7.70;;
9115;SDS011;4593;53.652;10.168;2023-10-19T13:23:59;12.63;;;8.47;;
9115;SDS011;4593;53.652;10.168;2023-10-19T13:26:27;13.20;;;7.70;;
9115;SDS011;4593;53.652;10.168;2023-10-19T13:28:53;15.97;;;7.97;;
9115;SDS011;4593;53.652;10.168;2023-10-19T13:31:20;18.13;;;9.60;;
9115;SDS011;4593;53.652;10.168;2023-10-19T13:33:47;14.20;;;8.10;;
9115;SDS011;4593;53.652;10.168;2023-10-19T13:36:13;12.07;;;7.30;;
9115;SDS011;4593;53.652;10.168;2023-10-19T13:38:38;16.00;;;9.50;;
9115;SDS011;4593;53.652;10.168;2023-10-19T13:41:04;11.93;;;8.90;;
9115;SDS011;4593;53.652;10.168;2023-10-19T13:43:35;16.13;;;8.93;;
9115;SDS011;4593;53.652;10.168;2023-10-19T13:46:01;12.03;;;7.97;;
9115;SDS011;4593;53.652;10.168;2023-10-19T13:48:26;12.90;;;8.30;;
9115;SDS011;4593;53.652;10.168;2023-10-19T13:50:53;13.00;;;8.60;;
9115;SDS011;4593;53.652;10.168;2023-10-19T13:53:25;14.70;;;7.23;;
9115;SDS011;4593;53.652;10.168;2023-10-19T13:55:51;14.90;;;8.30;;
9115;SDS011;4593;53.652;10.168;2023-10-19T13:58:17;15.63;;;8.13;;
9115;SDS011;4593;53.652;10.168;2023-10-19T14:00:43;11.93;;;8.10;;
9115;SDS011;4593;53.652;10.168;2023-10-19T14:03:10;14.30;;;7.37;;
9115;SDS011;4593;53.652;10.168;2023-10-19T14:05:39;17.10;;;8.93;;
9115;SDS011;4593;53.652;10.168;2023-10-19T14:08:08;11.33;;;8.27;;
9115;SDS011;4593;53.652;10.168;2023-10-19T14:10:34;16.30;;;9.33;;
9115;SDS011;4593;53.652;10.168;2023-10-19T14:13:01;14.93;;;7.77;;
9115;SDS011;4593;53.652;10.168;2023-10-19T14:15:27;13.37;;;7.33;;
9115;SDS011;4593;53.652;10.168;2023-10-19T14:17:55;15.17;;;8.47;;
9115;SDS011;4593;53.652;10.168;2023-10-19T14:20:23;10.67;;;7.73;;
9115;SDS011;4593;53.652;10.168;2023-10-19T14:22:49;13.43;;;7.70;;
9115;SDS011;4593;53.652;10.168;2023-10-19T14:25:15;14.63;;;8.50;;
9115;SDS011;4593;53.652;10.168;2023-10-19T14:27:45;12.40;;;8.20;;
9115;SDS011;4593;53.652;10.168;2023-10-19T14:30:13;10.40;;;7.47;;
9115;SDS011;4593;53.652;10.168;2023-10-19T14:32:40;10.70;;;7.93;;
9115;SDS011;4593;53.652;10.168;2023-10-19T14:35:11;13.50;;;7.70;;
9115;SDS011;4593;53.652;10.168;2023-10-19T14:37:38;10.73;;;7.03;;
9115;SDS011;4593;53.652;10.168;2023-10-19T14:40:08;13.77;;;7.53;;
9115;SDS011;4593;53.652;10.168;2023-10-19T14:42:38;11.33;;;7.60;;
9115;SDS011;4593;53.652;10.168;2023-10-19T14:45:15;13.60;;;7.73;;
9115;SDS011;4593;53.652;10.168;2023-10-19T14:47:46;17.23;;;8.50;;
9115;SDS011;4593;53.652;10.168;2023-10-19T14:50:13;11.50;;;7.90;;
9115;SDS011;4593;53.652;10.168;2023-10-19T14:52:40;16.13;;;8.20;;
9115;SDS011;4593;53.652;10.168;2023-10-19T14:55:07;18.80;;;8.27;;
9115;SDS011;4593;53.652;10.168;2023-10-19T14:57:35;14.40;;;7.93;;
9115;SDS011;4593;53.652;10.168;2023-10-19T15:00:06;15.37;;;8.57;;
9115;SDS011;4593;53.652;10.168;2023-10-19T15:02:55;13.17;;;8.03;;
9115;SDS011;4593;53.652;10.168;2023-10-19T15:05:24;16.23;;;8.07;;
9115;SDS011;4593;53.652;10.168;2023-10-19T15:07:52;11.73;;;8.47;;
9115;SDS011;4593;53.652;10.168;2023-10-19T15:10:22;14.93;;;8.80;;
9115;SDS011;4593;53.652;10.168;2023-10-19T15:12:50;16.83;;;8.47;;
9115;SDS011;4593;53.652;10.168;2023-10-19T15:15:16;17.13;;;8.37;;
9115;SDS011;4593;53.652;10.168;2023-10-19T15:17:42;13.60;;;8.17;;